Time;durP1;ratioP1;P1;durP2;ratioP2;P2;SDS_P1;SDS_P2;PMS_P1;PMS_P2;Temp;Humidity;BMP_temperature;BMP_pressure;BME280_temperature;BME280_humidity;BME280_pressure;Samples;Min_cycle;Max_cycle;Signal;HPM_P1;HPM_P2
2023/06/20 00:01:18;;;;;;;6.35;5.75;;;;;;;;;;5085108;28;20362;-71
2023/06/20 00:03:45;;;;;;;5.90;5.60;;;;;;;;;;5085169;28;20196;-71
2023/06/20 00:06:11;;;;;;;5.85;5.45;;;;;;;;;;5085021;28;20235;-71
2023/06/20 00:08:37;;;;;;;5.88;5.18;;;;;;;;;;5084571;28;20227;-71
2023/06/20 00:11:05;;;;;;;7.22;5.75;;;;;;;;;;5084984;28;20200;-71
2023/06/20 00:13:31;;;;;;;6.20;5.80;;;;;;;;;;5084925;28;20208;-70
2023/06/20 00:15:57;;;;;;;6.35;5.57;;;;;;;;;;5084754;28;20197;-70
2023/06/20 00:18:24;;;;;;;5.88;5.45;;;;;;;;;;5084548;28;20242;-70
2023/06/20 00:20:53;;;;;;;6.53;5.95;;;;;;;;;;5084747;28;20196;-70
2023/06/20 00:23:20;;;;;;;6.15;5.68;;;;;;;;;;5084630;28;20234;-70
2023/06/20 00:25:46;;;;;;;6.20;5.70;;;;;;;;;;5084863;28;20211;-70
2023/06/20 00:28:16;;;;;;;6.32;5.93;;;;;;;;;;5084437;28;20228;-70
2023/06/20 00:30:42;;;;;;;6.20;5.72;;;;;;;;;;5084647;28;20559;-70
2023/06/20 00:33:08;;;;;;;6.35;5.95;;;;;;;;;;5084683;28;20199;-70
2023/06/20 00:35:34;;;;;;;5.95;5.45;;;;;;;;;;5084431;28;20204;-70
2023/06/20 00:38:01;;;;;;;6.22;5.65;;;;;;;;;;5084510;28;20516;-70
2023/06/20 00:40:27;;;;;;;6.22;5.70;;;;;;;;;;5084597;28;20196;-70
2023/06/20 00:42:53;;;;;;;7.03;6.43;;;;;;;;;;5084643;28;20397;-70
2023/06/20 00:45:27;;;;;;;7.68;6.10;;;;;;;;;;5084260;28;20203;-71
2023/06/20 00:47:53;;;;;;;6.38;5.03;;;;;;;;;;5084168;28;20219;-71
2023/06/20 00:50:19;;;;;;;5.07;4.68;;;;;;;;;;5084303;28;20475;-71
2023/06/20 00:52:46;;;;;;;5.97;5.30;;;;;;;;;;5084338;28;20196;-71
2023/06/20 00:55:13;;;;;;;11.30;5.95;;;;;;;;;;5084418;28;20196;-71
2023/06/20 00:57:41;;;;;;;6.40;5.85;;;;;;;;;;5084024;28;20198;-71
2023/06/20 01:00:12;;;;;;;9.77;5.85;;;;;;;;;;5083893;28;20204;-71
2023/06/20 01:02:46;;;;;;;8.60;6.38;;;;;;;;;;5084465;28;20266;-71
2023/06/20 01:05:13;;;;;;;6.55;5.75;;;;;;;;;;5084203;28;20203;-71
2023/06/20 01:07:43;;;;;;;7.25;6.55;;;;;;;;;;5083962;28;20550;-71
2023/06/20 01:10:13;;;;;;;6.45;5.85;;;;;;;;;;5083708;28;20203;-71
2023/06/20 01:12:43;;;;;;;6.90;6.13;;;;;;;;;;5083901;28;20366;-71
2023/06/20 01:15:13;;;;;;;7.93;6.25;;;;;;;;;;5083699;28;20200;-71
2023/06/20 01:17:44;;;;;;;7.28;6.03;;;;;;;;;;5083960;28;20196;-71
2023/06/20 01:20:12;;;;;;;6.55;5.95;;;;;;;;;;5083500;28;20203;-71
2023/06/20 01:22:45;;;;;;;6.50;6.00;;;;;;;;;;5083770;28;20211;-71
2023/06/20 01:25:14;;;;;;;5.50;5.00;;;;;;;;;;5083797;28;20518;-71
2023/06/20 01:27:43;;;;;;;9.27;5.90;;;;;;;;;;5083274;28;20216;-71
2023/06/20 01:30:13;;;;;;;6.35;5.75;;;;;;;;;;5083190;28;20200;-71
2023/06/20 01:32:42;;;;;;;8.75;5.93;;;;;;;;;;5083347;28;20203;-71
2023/06/20 01:35:10;;;;;;;7.18;6.05;;;;;;;;;;5083279;28;20242;-71
2023/06/20 01:37:39;;;;;;;8.57;5.80;;;;;;;;;;5083358;28;20197;-71
2023/06/20 01:40:08;;;;;;;6.63;5.95;;;;;;;;;;5083050;28;20196;-71
2023/06/20 01:42:35;;;;;;;6.03;5.53;;;;;;;;;;5083541;28;20454;-71
2023/06/20 01:45:02;;;;;;;6.30;5.78;;;;;;;;;;5083074;28;20504;-71
2023/06/20 01:47:30;;;;;;;6.93;5.78;;;;;;;;;;5083095;28;20224;-71
2023/06/20 01:49:57;;;;;;;8.40;6.35;;;;;;;;;;5083029;28;20203;-71
2023/06/20 01:52:23;;;;;;;6.28;5.68;;;;;;;;;;5083136;28;20433;-71
2023/06/20 01:54:50;;;;;;;7.65;5.78;;;;;;;;;;5082786;28;20396;-71
2023/06/20 01:57:18;;;;;;;8.77;6.00;;;;;;;;;;5083178;28;20200;-71
2023/06/20 01:59:45;;;;;;;6.82;6.22;;;;;;;;;;5082905;28;20645;-71
2023/06/20 02:02:12;;;;;;;7.25;6.38;;;;;;;;;;5082950;28;20391;-71
2023/06/20 02:04:38;;;;;;;6.18;5.65;;;;;;;;;;5082860;28;20196;-71
2023/06/20 02:07:06;;;;;;;6.10;5.70;;;;;;;;;;5082077;28;20227;-71
2023/06/20 02:09:33;;;;;;;6.30;5.70;;;;;;;;;;5082362;28;20206;-71
2023/06/20 02:12:00;;;;;;;7.28;6.53;;;;;;;;;;5082771;28;20234;-71
2023/06/20 02:14:28;;;;;;;7.25;6.35;;;;;;;;;;5082627;28;20503;-71
2023/06/20 02:16:55;;;;;;;7.13;6.43;;;;;;;;;;5082545;28;20196;-71
2023/06/20 02:19:21;;;;;;;6.80;5.82;;;;;;;;;;5082482;28;20417;-71
2023/06/20 02:21:48;;;;;;;6.18;5.57;;;;;;;;;;5082676;28;20357;-71
2023/06/20 02:24:18;;;;;;;7.72;5.20;;;;;;;;;;5082428;28;20395;-72
2023/06/20 02:26:45;;;;;;;6.30;5.70;;;;;;;;;;5082579;28;20196;-72
2023/06/20 02:29:12;;;;;;;5.40;5.10;;;;;;;;;;5082524;28;20219;-71
2023/06/20 02:31:41;;;;;;;5.65;4.97;;;;;;;;;;5082324;28;20202;-71
2023/06/20 02:34:09;;;;;;;6.32;5.45;;;;;;;;;;5082233;28;20196;-71
2023/06/20 02:36:36;;;;;;;6.90;5.85;;;;;;;;;;5082126;28;20242;-71
2023/06/20 02:39:04;;;;;;;5.88;5.47;;;;;;;;;;5082220;28;20237;-71
2023/06/20 02:41:31;;;;;;;6.10;5.53;;;;;;;;;;5082217;28;20196;-71
2023/06/20 02:43:57;;;;;;;6.72;5.53;;;;;;;;;;5082100;28;20223;-71
2023/06/20 02:46:27;;;;;;;9.25;5.68;;;;;;;;;;5082204;28;20496;-71
2023/06/20 02:48:59;;;;;;;5.50;5.10;;;;;;;;;;5081702;28;20216;-71
2023/06/20 02:51:31;;;;;;;7.00;5.78;;;;;;;;;;5082270;28;20196;-71
2023/06/20 02:54:00;;;;;;;10.93;5.90;;;;;;;;;;5082333;28;20257;-71
2023/06/20 02:56:29;;;;;;;6.63;6.20;;;;;;;;;;5081995;28;20504;-71
2023/06/20 02:58:56;;;;;;;6.90;5.97;;;;;;;;;;5081744;28;20454;-71
2023/06/20 03:01:24;;;;;;;9.60;6.15;;;;;;;;;;5082052;28;20426;-72
2023/06/20 03:03:52;;;;;;;6.63;6.10;;;;;;;;;;5081884;28;20196;-71
2023/06/20 03:06:26;;;;;;;6.68;6.10;;;;;;;;;;5081930;28;20267;-71
2023/06/20 03:08:53;;;;;;;6.50;5.88;;;;;;;;;;5081738;28;20286;-71
2023/06/20 03:11:20;;;;;;;6.65;5.88;;;;;;;;;;5081857;28;20242;-71
2023/06/20 03:13:46;;;;;;;8.77;6.28;;;;;;;;;;5081892;28;20236;-71
2023/06/20 03:16:12;;;;;;;6.47;5.97;;;;;;;;;;5081800;28;20197;-71
2023/06/20 03:18:39;;;;;;;6.47;5.97;;;;;;;;;;5083488;28;20199;-71
2023/06/20 03:21:05;;;;;;;6.90;6.22;;;;;;;;;;5086022;28;20253;-71
2023/06/20 03:23:33;;;;;;;7.35;6.40;;;;;;;;;;5086125;28;20200;-71
2023/06/20 03:25:59;;;;;;;7.38;6.68;;;;;;;;;;5085846;28;20249;-71
2023/06/20 03:28:26;;;;;;;7.65;6.18;;;;;;;;;;5085436;28;20220;-71
2023/06/20 03:30:52;;;;;;;7.97;7.18;;;;;;;;;;5085659;28;20226;-71
2023/06/20 03:33:18;;;;;;;7.28;6.57;;;;;;;;;;5085737;28;20196;-71
2023/06/20 03:35:45;;;;;;;7.53;6.82;;;;;;;;;;5085557;28;20196;-72
2023/06/20 03:38:12;;;;;;;7.32;6.68;;;;;;;;;;5085315;28;20534;-71
2023/06/20 03:40:39;;;;;;;6.65;6.25;;;;;;;;;;5085596;28;20422;-71
2023/06/20 03:43:05;;;;;;;9.20;7.43;;;;;;;;;;5085428;28;20525;-71
2023/06/20 03:45:32;;;;;;;9.55;6.80;;;;;;;;;;5085317;28;20196;-71
2023/06/20 03:47:58;;;;;;;7.30;6.70;;;;;;;;;;5085223;28;20283;-71
2023/06/20 03:50:24;;;;;;;8.65;7.13;;;;;;;;;;5085484;28;20196;-71
2023/06/20 03:52:51;;;;;;;10.02;6.53;;;;;;;;;;5085409;28;20496;-71
2023/06/20 03:55:17;;;;;;;8.10;7.30;;;;;;;;;;5085166;28;20214;-71
2023/06/20 03:57:44;;;;;;;12.93;8.57;;;;;;;;;;5085259;28;20234;-71
2023/06/20 04:00:12;;;;;;;12.35;7.88;;;;;;;;;;5084952;28;20200;-71
2023/06/20 04:02:41;;;;;;;9.32;7.90;;;;;;;;;;5085307;28;20519;-71
2023/06/20 04:05:08;;;;;;;13.82;8.45;;;;;;;;;;5085106;28;20457;-71
2023/06/20 04:07:34;;;;;;;7.80;7.03;;;;;;;;;;5084837;28;20204;-71
2023/06/20 04:10:01;;;;;;;9.27;7.25;;;;;;;;;;5084796;28;20197;-72
2023/06/20 04:12:27;;;;;;;9.55;8.55;;;;;;;;;;5084757;28;20197;-72
2023/06/20 04:14:55;;;;;;;8.95;7.57;;;;;;;;;;5085174;28;20208;-71
2023/06/20 04:17:21;;;;;;;8.50;7.65;;;;;;;;;;5084787;28;20207;-71
2023/06/20 04:19:47;;;;;;;8.38;7.53;;;;;;;;;;5084736;28;20357;-71
2023/06/20 04:22:14;;;;;;;7.97;7.38;;;;;;;;;;5084810;28;20430;-71
2023/06/20 04:24:40;;;;;;;10.00;8.13;;;;;;;;;;5084743;28;20220;-71
2023/06/20 04:27:07;;;;;;;7.78;7.15;;;;;;;;;;5084855;28;20254;-71
2023/06/20 04:29:33;;;;;;;10.63;7.78;;;;;;;;;;5084118;28;20232;-71
2023/06/20 04:32:00;;;;;;;8.18;7.32;;;;;;;;;;5084678;28;20196;-71
2023/06/20 04:34:27;;;;;;;11.25;7.32;;;;;;;;;;5084598;28;20196;-71
2023/06/20 04:36:53;;;;;;;10.45;7.57;;;;;;;;;;5084389;28;20428;-71
2023/06/20 04:39:19;;;;;;;11.05;7.10;;;;;;;;;;5084186;28;20511;-71
2023/06/20 04:41:45;;;;;;;7.15;6.57;;;;;;;;;;5084401;28;20524;-71
2023/06/20 04:44:12;;;;;;;7.53;6.60;;;;;;;;;;5084495;28;20234;-71
2023/06/20 04:46:39;;;;;;;7.78;6.57;;;;;;;;;;5084753;28;20197;-71
2023/06/20 04:49:06;;;;;;;7.82;6.88;;;;;;;;;;5083980;28;20220;-71
2023/06/20 04:51:33;;;;;;;7.90;7.22;;;;;;;;;;5084266;28;20234;-71
2023/06/20 04:53:59;;;;;;;7.70;7.00;;;;;;;;;;5084189;28;20196;-71
2023/06/20 04:56:25;;;;;;;8.45;7.65;;;;;;;;;;5084201;28;20252;-71
2023/06/20 04:58:51;;;;;;;8.00;7.20;;;;;;;;;;5084024;28;20231;-71
2023/06/20 05:01:18;;;;;;;7.40;6.78;;;;;;;;;;5084052;28;20242;-71
2023/06/20 05:03:44;;;;;;;10.15;6.72;;;;;;;;;;5084102;28;20209;-71
2023/06/20 05:06:17;;;;;;;6.60;6.13;;;;;;;;;;5084300;28;20203;-71
2023/06/20 05:08:43;;;;;;;7.60;6.80;;;;;;;;;;5083517;28;20286;-71
2023/06/20 05:11:09;;;;;;;7.30;6.68;;;;;;;;;;5083743;28;20215;-71
2023/06/20 05:13:35;;;;;;;6.85;6.22;;;;;;;;;;5083958;28;20530;-71
2023/06/20 05:16:02;;;;;;;8.00;6.65;;;;;;;;;;5083789;28;20516;-71
2023/06/20 05:18:28;;;;;;;6.40;5.80;;;;;;;;;;5083638;28;20238;-71
2023/06/20 05:20:55;;;;;;;7.60;6.30;;;;;;;;;;5083688;28;20259;-71
2023/06/20 05:23:24;;;;;;;6.10;5.53;;;;;;;;;;5083455;28;20196;-71
2023/06/20 05:25:50;;;;;;;5.82;5.22;;;;;;;;;;5083820;28;20200;-71
2023/06/20 05:28:17;;;;;;;6.65;4.85;;;;;;;;;;5083252;28;20261;-71
2023/06/20 05:30:43;;;;;;;4.40;4.03;;;;;;;;;;5083435;28;20200;-71
2023/06/20 05:33:09;;;;;;;4.60;4.22;;;;;;;;;;5083315;28;20286;-71
2023/06/20 05:35:36;;;;;;;5.65;4.70;;;;;;;;;;5083330;28;20196;-71
2023/06/20 05:38:03;;;;;;;5.20;4.70;;;;;;;;;;5083093;28;20200;-71
2023/06/20 05:40:31;;;;;;;6.93;4.90;;;;;;;;;;5083199;28;20218;-71
2023/06/20 05:42:57;;;;;;;4.55;4.25;;;;;;;;;;5076601;28;20208;-70
2023/06/20 05:45:24;;;;;;;4.60;4.40;;;;;;;;;;5077873;28;20220;-71
2023/06/20 05:47:50;;;;;;;5.72;5.43;;;;;;;;;;5078061;28;20463;-70
2023/06/20 05:50:16;;;;;;;5.65;4.93;;;;;;;;;;5058838;28;20271;-71
2023/06/20 05:52:42;;;;;;;6.47;5.30;;;;;;;;;;5062656;28;20383;-72
2023/06/20 05:55:09;;;;;;;5.85;4.70;;;;;;;;;;5075272;28;20454;-72
2023/06/20 05:57:37;;;;;;;7.53;5.00;;;;;;;;;;5075537;28;20215;-72
2023/06/20 06:00:11;;;;;;;4.93;4.50;;;;;;;;;;5075352;28;20208;-73
2023/06/20 06:02:38;;;;;;;6.78;4.90;;;;;;;;;;5056316;28;20480;-60
2023/06/20 06:05:04;;;;;;;5.15;4.65;;;;;;;;;;5074753;28;20224;-60
2023/06/20 06:07:31;;;;;;;5.40;4.90;;;;;;;;;;5074449;28;20411;-60
2023/06/20 06:09:57;;;;;;;5.28;4.78;;;;;;;;;;5074518;28;20231;-60
2023/06/20 06:12:23;;;;;;;4.55;4.25;;;;;;;;;;5074797;28;20208;-60
2023/06/20 06:14:52;;;;;;;4.45;4.05;;;;;;;;;;5074948;28;20207;-60
2023/06/20 06:17:18;;;;;;;5.43;4.22;;;;;;;;;;5074580;28;20235;-61
2023/06/20 06:19:44;;;;;;;5.95;4.65;;;;;;;;;;5073973;28;20262;-60
2023/06/20 06:22:12;;;;;;;7.25;4.75;;;;;;;;;;5074846;28;20216;-61
2023/06/20 06:24:38;;;;;;;4.85;4.40;;;;;;;;;;5073706;28;20216;-60
2023/06/20 06:27:05;;;;;;;3.85;3.55;;;;;;;;;;5075735;28;20228;-60
2023/06/20 06:29:31;;;;;;;4.30;3.92;;;;;;;;;;5076083;28;20231;-60
2023/06/20 06:31:59;;;;;;;6.10;3.35;;;;;;;;;;5075115;28;20249;-61
2023/06/20 06:34:26;;;;;;;4.50;3.80;;;;;;;;;;5075944;28;20217;-61
2023/06/20 06:36:52;;;;;;;3.50;3.30;;;;;;;;;;5075564;28;20211;-60
2023/06/20 06:39:19;;;;;;;4.78;3.20;;;;;;;;;;5075204;28;20208;-61
2023/06/20 06:41:47;;;;;;;5.15;4.05;;;;;;;;;;5075440;28;20212;-60
2023/06/20 06:44:13;;;;;;;4.68;3.58;;;;;;;;;;5076582;28;20211;-61
2023/06/20 06:46:39;;;;;;;4.13;3.72;;;;;;;;;;5075129;28;20338;-61
2023/06/20 06:49:07;;;;;;;4.13;3.63;;;;;;;;;;5075629;28;20234;-61
2023/06/20 06:51:33;;;;;;;6.88;3.92;;;;;;;;;;5076168;28;20212;-60
2023/06/20 06:54:00;;;;;;;3.95;3.03;;;;;;;;;;5075463;28;20219;-60
2023/06/20 06:56:26;;;;;;;4.53;3.30;;;;;;;;;;5075927;28;20216;-60
2023/06/20 06:58:56;;;;;;;5.30;3.40;;;;;;;;;;5075016;28;20253;-60
2023/06/20 07:01:22;;;;;;;4.05;3.58;;;;;;;;;;5075661;28;20211;-60
2023/06/20 07:03:48;;;;;;;7.03;3.58;;;;;;;;;;5075277;28;20519;-60
2023/06/20 07:06:16;;;;;;;3.72;3.42;;;;;;;;;;5076070;28;20211;-60
2023/06/20 07:08:42;;;;;;;5.90;3.70;;;;;;;;;;5075107;28;20219;-60
2023/06/20 07:11:08;;;;;;;4.05;3.47;;;;;;;;;;5075626;28;20219;-60
2023/06/20 07:13:35;;;;;;;4.82;3.72;;;;;;;;;;5075584;28;20216;-60
2023/06/20 07:16:01;;;;;;;3.80;3.60;;;;;;;;;;5075922;28;20218;-61
2023/06/20 07:18:27;;;;;;;8.13;3.45;;;;;;;;;;5076375;28;20206;-60
2023/06/20 07:20:56;;;;;;;6.50;3.60;;;;;;;;;;5076502;28;20221;-60
2023/06/20 07:23:24;;;;;;;5.10;4.10;;;;;;;;;;5076094;28;20208;-60
2023/06/20 07:25:50;;;;;;;6.15;3.97;;;;;;;;;;5075737;28;20220;-60
2023/06/20 07:28:17;;;;;;;6.20;4.07;;;;;;;;;;5075959;28;20270;-60
2023/06/20 07:30:43;;;;;;;6.80;4.22;;;;;;;;;;5075403;28;20262;-60
2023/06/20 07:33:09;;;;;;;5.85;4.30;;;;;;;;;;5075548;28;20211;-61
2023/06/20 07:35:35;;;;;;;5.35;4.05;;;;;;;;;;5076062;28;20257;-60
2023/06/20 07:38:02;;;;;;;4.43;4.03;;;;;;;;;;5076475;28;20270;-61
2023/06/20 07:40:29;;;;;;;6.63;3.78;;;;;;;;;;5077217;28;20215;-61
2023/06/20 07:42:55;;;;;;;6.40;3.90;;;;;;;;;;5077598;28;20212;-60
2023/06/20 07:45:22;;;;;;;4.03;3.70;;;;;;;;;;5076729;28;20226;-60
2023/06/20 07:47:48;;;;;;;5.93;3.78;;;;;;;;;;5077460;28;20196;-61
2023/06/20 07:50:14;;;;;;;4.28;3.97;;;;;;;;;;5077707;28;20224;-60
2023/06/20 07:52:41;;;;;;;7.90;4.20;;;;;;;;;;5077624;28;20265;-61
2023/06/20 07:55:07;;;;;;;6.35;3.92;;;;;;;;;;5077183;28;20457;-61
2023/06/20 07:57:35;;;;;;;6.15;4.25;;;;;;;;;;5076065;28;20257;-61
2023/06/20 08:00:05;;;;;;;4.47;4.05;;;;;;;;;;5075742;28;20208;-61
2023/06/20 08:02:31;;;;;;;5.80;3.75;;;;;;;;;;5075274;28;20307;-61
2023/06/20 08:04:57;;;;;;;6.63;4.30;;;;;;;;;;5077420;28;20218;-61
2023/06/20 08:07:24;;;;;;;7.25;4.07;;;;;;;;;;5079382;28;20262;-61
2023/06/20 08:09:50;;;;;;;7.68;4.40;;;;;;;;;;5078469;28;20232;-61
2023/06/20 08:12:16;;;;;;;3.95;3.65;;;;;;;;;;5079320;28;20546;-61
2023/06/20 08:14:44;;;;;;;4.28;3.88;;;;;;;;;;5078974;28;20388;-61
2023/06/20 08:17:13;;;;;;;5.35;4.20;;;;;;;;;;5079022;28;20285;-59
2023/06/20 08:19:40;;;;;;;7.25;3.95;;;;;;;;;;5078483;28;20215;-61
2023/06/20 08:22:06;;;;;;;4.80;3.78;;;;;;;;;;5078552;28;20204;-61
2023/06/20 08:24:32;;;;;;;6.22;3.88;;;;;;;;;;5078335;28;20466;-61
2023/06/20 08:26:58;;;;;;;5.80;4.20;;;;;;;;;;5078403;28;20444;-61
2023/06/20 08:29:25;;;;;;;8.00;4.43;;;;;;;;;;5078345;28;20535;-61
2023/06/20 08:31:52;;;;;;;7.82;4.15;;;;;;;;;;5078297;28;20551;-61
2023/06/20 08:34:18;;;;;;;4.53;4.22;;;;;;;;;;5077951;28;20445;-61
2023/06/20 08:36:45;;;;;;;5.43;4.60;;;;;;;;;;5079439;28;20243;-61
2023/06/20 08:39:12;;;;;;;5.75;4.80;;;;;;;;;;5078626;28;20212;-60
2023/06/20 08:41:38;;;;;;;4.78;4.28;;;;;;;;;;5079569;28;20577;-63
2023/06/20 08:44:05;;;;;;;4.82;4.43;;;;;;;;;;5080082;28;20218;-61
2023/06/20 08:46:31;;;;;;;8.52;4.40;;;;;;;;;;5077462;28;20212;-61
2023/06/20 08:48:59;;;;;;;6.00;4.28;;;;;;;;;;5080019;28;20203;-62
2023/06/20 08:51:27;;;;;;;4.88;4.45;;;;;;;;;;5080146;28;20322;-61
2023/06/20 08:53:54;;;;;;;5.95;4.25;;;;;;;;;;5077737;28;20216;-61
2023/06/20 08:56:21;;;;;;;5.47;4.25;;;;;;;;;;5078870;28;20204;-61
2023/06/20 08:58:48;;;;;;;4.45;4.05;;;;;;;;;;5078651;28;20216;-61
2023/06/20 09:01:15;;;;;;;8.55;4.75;;;;;;;;;;5080366;28;20212;-61
2023/06/20 09:03:41;;;;;;;4.82;3.85;;;;;;;;;;5079040;28;20383;-61
2023/06/20 09:06:09;;;;;;;4.55;4.10;;;;;;;;;;5078936;28;20219;-61
2023/06/20 09:08:36;;;;;;;4.95;4.10;;;;;;;;;;5078512;28;20250;-61
2023/06/20 09:11:06;;;;;;;7.70;4.45;;;;;;;;;;5078021;28;20227;-62
2023/06/20 09:13:34;;;;;;;5.70;4.32;;;;;;;;;;5079864;28;20219;-61
2023/06/20 09:16:04;;;;;;;6.25;4.22;;;;;;;;;;5077233;28;20286;-61
2023/06/20 09:18:31;;;;;;;7.53;4.00;;;;;;;;;;5078794;28;20204;-62
2023/06/20 09:20:58;;;;;;;8.85;4.25;;;;;;;;;;5077928;28;20204;-61
2023/06/20 09:23:29;;;;;;;7.45;4.55;;;;;;;;;;5078172;28;20389;-62
2023/06/20 09:25:56;;;;;;;5.55;4.05;;;;;;;;;;5074616;28;20546;-61
2023/06/20 09:28:22;;;;;;;7.93;4.40;;;;;;;;;;5077557;28;20228;-61
2023/06/20 09:30:48;;;;;;;4.30;4.00;;;;;;;;;;5077372;28;20290;-61
2023/06/20 09:33:15;;;;;;;8.70;4.40;;;;;;;;;;5077230;28;21271;-61
2023/06/20 09:35:41;;;;;;;5.20;4.28;;;;;;;;;;5077259;28;20231;-61
2023/06/20 09:38:08;;;;;;;9.20;4.63;;;;;;;;;;5077272;28;20217;-61
2023/06/20 09:40:44;;;;;;;7.20;4.78;;;;;;;;;;5077718;28;20245;-61
2023/06/20 09:43:10;;;;;;;5.35;4.05;;;;;;;;;;5077667;28;20486;-61
2023/06/20 09:45:36;;;;;;;6.53;4.05;;;;;;;;;;5077526;28;20208;-61
2023/06/20 09:48:04;;;;;;;4.40;4.00;;;;;;;;;;5077204;28;20218;-62
2023/06/20 09:50:30;;;;;;;5.82;4.55;;;;;;;;;;5079790;28;20232;-61
2023/06/20 09:53:00;;;;;;;8.40;4.43;;;;;;;;;;5078313;28;20211;-61
2023/06/20 09:55:26;;;;;;;4.43;4.07;;;;;;;;;;5077267;28;20442;-61
2023/06/20 09:57:55;;;;;;;7.13;4.50;;;;;;;;;;5077587;28;20438;-61
2023/06/20 10:00:23;;;;;;;7.40;4.22;;;;;;;;;;5078197;28;20212;-61
2023/06/20 10:02:50;;;;;;;6.95;4.05;;;;;;;;;;5077029;28;20273;-61
2023/06/20 10:05:17;;;;;;;7.22;4.72;;;;;;;;;;5077229;28;20211;-61
2023/06/20 10:07:44;;;;;;;5.05;4.13;;;;;;;;;;5077013;28;20558;-61
2023/06/20 10:10:10;;;;;;;7.68;4.95;;;;;;;;;;5076086;28;20224;-61
2023/06/20 10:12:37;;;;;;;7.65;4.22;;;;;;;;;;5077745;28;20208;-61
2023/06/20 10:15:07;;;;;;;5.00;4.10;;;;;;;;;;5077074;28;20226;-61
2023/06/20 10:17:35;;;;;;;5.05;4.25;;;;;;;;;;5077645;28;20211;-61
2023/06/20 10:20:04;;;;;;;6.93;4.32;;;;;;;;;;5078977;28;20410;-61
2023/06/20 10:22:34;;;;;;;4.50;4.20;;;;;;;;;;5077821;28;20234;-61
2023/06/20 10:25:11;;;;;;;4.97;4.05;;;;;;;;;;5077243;28;20275;-61
2023/06/20 10:27:37;;;;;;;7.45;4.00;;;;;;;;;;5077975;28;20395;-63
2023/06/20 10:30:06;;;;;;;4.22;3.80;;;;;;;;;;5077154;28;20227;-61
2023/06/20 10:32:32;;;;;;;5.30;4.20;;;;;;;;;;5076346;28;20247;-61
2023/06/20 10:35:04;;;;;;;7.13;4.53;;;;;;;;;;5076371;28;20215;-62
2023/06/20 10:37:38;;;;;;;5.50;4.05;;;;;;;;;;5076095;28;20203;-61
2023/06/20 10:40:06;;;;;;;4.53;3.70;;;;;;;;;;5069212;28;20212;-62
2023/06/20 10:42:39;;;;;;;9.60;4.30;;;;;;;;;;5076033;28;20578;-62
2023/06/20 10:45:20;;;;;;;4.32;3.90;;;;;;;;;;5076254;28;20211;-62
2023/06/20 10:47:48;;;;;;;5.43;4.22;;;;;;;;;;5072793;28;20222;-62
2023/06/20 10:50:15;;;;;;;5.45;3.90;;;;;;;;;;5076353;28;20438;-62
2023/06/20 10:52:41;;;;;;;3.92;3.58;;;;;;;;;;5076290;28;20550;-73
2023/06/20 10:55:08;;;;;;;4.43;4.03;;;;;;;;;;5076079;28;20507;-74
2023/06/20 10:57:34;;;;;;;9.02;3.65;;;;;;;;;;5075545;28;20218;-74
2023/06/20 11:00:06;;;;;;;5.03;3.08;;;;;;;;;;5075292;28;20207;-74
2023/06/20 11:02:34;;;;;;;5.88;3.83;;;;;;;;;;5074310;28;20215;-74
2023/06/20 11:05:04;;;;;;;4.88;3.90;;;;;;;;;;5074715;28;20211;-73
2023/06/20 11:07:30;;;;;;;4.55;3.40;;;;;;;;;;5075852;28;20216;-73
2023/06/20 11:09:56;;;;;;;5.80;3.70;;;;;;;;;;5075056;28;20451;-73
2023/06/20 11:12:22;;;;;;;5.47;3.65;;;;;;;;;;5075042;28;20219;-73
2023/06/20 11:14:49;;;;;;;5.95;3.72;;;;;;;;;;5075931;28;20218;-73
2023/06/20 11:17:15;;;;;;;6.20;3.53;;;;;;;;;;5074961;28;20212;-73
2023/06/20 11:19:42;;;;;;;3.85;3.53;;;;;;;;;;5075696;28;20223;-73
2023/06/20 11:22:10;;;;;;;5.28;3.72;;;;;;;;;;5075750;28;20278;-73
2023/06/20 11:24:36;;;;;;;5.03;3.40;;;;;;;;;;5075559;28;20577;-73
2023/06/20 11:27:12;;;;;;;4.05;3.65;;;;;;;;;;5075248;28;20530;-73
2023/06/20 11:29:38;;;;;;;4.75;4.00;;;;;;;;;;5075533;28;20219;-73
2023/06/20 11:32:08;;;;;;;6.88;3.40;;;;;;;;;;5074824;28;20396;-73
2023/06/20 11:34:34;;;;;;;7.80;3.70;;;;;;;;;;5071928;28;20426;-74
2023/06/20 11:37:00;;;;;;;7.70;4.28;;;;;;;;;;5075729;28;20207;-73
2023/06/20 11:39:30;;;;;;;5.20;3.95;;;;;;;;;;5076711;28;20204;-73
2023/06/20 11:41:56;;;;;;;5.00;4.03;;;;;;;;;;5079126;28;20208;-73
2023/06/20 11:44:23;;;;;;;4.57;3.78;;;;;;;;;;5079686;28;20215;-73
2023/06/20 11:46:50;;;;;;;5.40;3.88;;;;;;;;;;5079163;28;20530;-73
2023/06/20 11:49:29;;;;;;;9.43;4.30;;;;;;;;;;5076432;28;20212;-73
2023/06/20 11:51:55;;;;;;;6.05;3.80;;;;;;;;;;5076805;28;20235;-73
2023/06/20 11:54:23;;;;;;;7.38;4.07;;;;;;;;;;5077067;28;20208;-73
2023/06/20 11:56:52;;;;;;;7.45;3.90;;;;;;;;;;5077059;28;20243;-73
2023/06/20 11:59:22;;;;;;;9.73;4.00;;;;;;;;;;5076955;28;20212;-73
2023/06/20 12:01:48;;;;;;;5.68;4.18;;;;;;;;;;5076931;28;20204;-73
2023/06/20 12:04:19;;;;;;;6.55;4.32;;;;;;;;;;5077030;28;20212;-73
2023/06/20 12:06:47;;;;;;;10.30;4.43;;;;;;;;;;5077253;28;20219;-73
2023/06/20 12:09:16;;;;;;;7.53;4.40;;;;;;;;;;5076540;28;20671;-73
2023/06/20 12:11:49;;;;;;;12.45;4.25;;;;;;;;;;5076904;28;20314;-73
2023/06/20 12:14:16;;;;;;;16.88;4.95;;;;;;;;;;5076743;28;20220;-73
2023/06/20 12:16:43;;;;;;;6.55;4.13;;;;;;;;;;5076673;28;20230;-73
2023/06/20 12:19:09;;;;;;;9.07;5.10;;;;;;;;;;5076946;28;20203;-73
2023/06/20 12:21:38;;;;;;;10.27;4.60;;;;;;;;;;5077028;28;20437;-73
2023/06/20 12:24:04;;;;;;;8.13;5.00;;;;;;;;;;5076525;28;20250;-73
2023/06/20 12:26:30;;;;;;;6.55;4.63;;;;;;;;;;5076445;28;20251;-73
2023/06/20 12:28:57;;;;;;;8.75;4.22;;;;;;;;;;5077109;28;20590;-73
2023/06/20 12:31:25;;;;;;;15.27;4.60;;;;;;;;;;5076833;28;20258;-73
2023/06/20 12:33:51;;;;;;;14.32;4.50;;;;;;;;;;5076139;28;20231;-73
2023/06/20 12:36:17;;;;;;;8.55;4.50;;;;;;;;;;5076259;28;20203;-73
2023/06/20 12:38:44;;;;;;;7.50;4.63;;;;;;;;;;5075980;28;20439;-73
2023/06/20 12:41:11;;;;;;;11.18;4.70;;;;;;;;;;5076236;28;20445;-73
2023/06/20 12:43:37;;;;;;;5.72;4.05;;;;;;;;;;5076614;28;20285;-73
2023/06/20 12:46:03;;;;;;;10.40;4.90;;;;;;;;;;5075870;28;20273;-73
2023/06/20 12:48:31;;;;;;;16.30;5.35;;;;;;;;;;5076005;28;20212;-73
2023/06/20 12:50:58;;;;;;;8.60;4.55;;;;;;;;;;5075643;28;20353;-73
2023/06/20 12:53:24;;;;;;;8.02;4.60;;;;;;;;;;5076322;28;20262;-73
2023/06/20 12:55:51;;;;;;;5.72;4.30;;;;;;;;;;5076715;28;20445;-73
2023/06/20 12:58:17;;;;;;;7.57;4.40;;;;;;;;;;5076155;28;20219;-73
2023/06/20 13:00:44;;;;;;;5.25;4.25;;;;;;;;;;5076633;28;20204;-74
2023/06/20 13:03:10;;;;;;;9.38;4.07;;;;;;;;;;5075765;28;20208;-73
2023/06/20 13:05:38;;;;;;;5.35;4.55;;;;;;;;;;5075940;28;20334;-73
2023/06/20 13:08:05;;;;;;;6.05;4.22;;;;;;;;;;5075862;28;20224;-73
2023/06/20 13:10:31;;;;;;;16.67;4.40;;;;;;;;;;5075596;28;20219;-73
2023/06/20 13:12:58;;;;;;;8.38;4.80;;;;;;;;;;5075955;28;20211;-73
2023/06/20 13:15:24;;;;;;;6.57;4.60;;;;;;;;;;5075625;28;20239;-72
2023/06/20 13:17:54;;;;;;;8.10;4.68;;;;;;;;;;5075892;28;20527;-72
2023/06/20 13:20:20;;;;;;;4.82;4.18;;;;;;;;;;5075726;28;20377;-74
2023/06/20 13:22:48;;;;;;;10.68;4.93;;;;;;;;;;5075708;28;20212;-73
2023/06/20 13:25:14;;;;;;;7.30;4.15;;;;;;;;;;5076069;28;20220;-73
2023/06/20 13:27:40;;;;;;;8.90;4.78;;;;;;;;;;5075714;28;20223;-73
2023/06/20 13:30:07;;;;;;;12.32;4.90;;;;;;;;;;5075192;28;20212;-72
2023/06/20 13:32:34;;;;;;;8.20;4.78;;;;;;;;;;5074634;28;20551;-72
2023/06/20 13:35:02;;;;;;;8.00;4.32;;;;;;;;;;5074822;28;20212;-72
2023/06/20 13:37:29;;;;;;;10.60;4.78;;;;;;;;;;5074281;28;20234;-72
2023/06/20 13:39:56;;;;;;;10.85;4.70;;;;;;;;;;5075365;28;20212;-72
2023/06/20 13:42:22;;;;;;;13.57;4.47;;;;;;;;;;5074619;28;20207;-72
2023/06/20 13:44:49;;;;;;;14.48;4.97;;;;;;;;;;5075221;28;20212;-72
2023/06/20 13:47:15;;;;;;;12.13;4.70;;;;;;;;;;5074344;28;20442;-72
2023/06/20 13:49:41;;;;;;;7.10;4.15;;;;;;;;;;5074788;28;20239;-73
2023/06/20 13:52:08;;;;;;;12.75;4.60;;;;;;;;;;5075508;28;20228;-73
2023/06/20 13:54:34;;;;;;;7.30;4.43;;;;;;;;;;5074629;28;20208;-72
2023/06/20 13:57:02;;;;;;;14.43;4.95;;;;;;;;;;5074701;28;20547;-72
2023/06/20 13:59:28;;;;;;;11.70;5.07;;;;;;;;;;5074613;28;20569;-71
2023/06/20 14:01:54;;;;;;;5.63;4.43;;;;;;;;;;5079171;28;20263;-71
2023/06/20 14:04:21;;;;;;;14.27;4.95;;;;;;;;;;5082398;28;20208;-71
2023/06/20 14:06:47;;;;;;;12.05;4.93;;;;;;;;;;5080632;28;20250;-72
2023/06/20 14:09:14;;;;;;;13.10;5.00;;;;;;;;;;5078074;28;20215;-71
2023/06/20 14:11:40;;;;;;;11.98;4.80;;;;;;;;;;5079059;28;20261;-71
2023/06/20 14:14:09;;;;;;;12.00;5.38;;;;;;;;;;5079214;28;20254;-71
2023/06/20 14:16:35;;;;;;;10.55;4.88;;;;;;;;;;5081114;28;20204;-71
2023/06/20 14:19:01;;;;;;;12.48;4.70;;;;;;;;;;5080148;28;20266;-72
2023/06/20 14:21:28;;;;;;;10.73;4.63;;;;;;;;;;5081591;28;20330;-72
2023/06/20 14:23:54;;;;;;;6.15;4.60;;;;;;;;;;5081700;28;20220;-72
2023/06/20 14:26:20;;;;;;;14.18;5.00;;;;;;;;;;5082137;28;20503;-72
2023/06/20 14:28:48;;;;;;;11.38;5.40;;;;;;;;;;5081664;28;20290;-72
2023/06/20 14:31:15;;;;;;;10.70;4.43;;;;;;;;;;5082069;28;20216;-71
2023/06/20 14:33:42;;;;;;;11.30;4.50;;;;;;;;;;5083318;28;20198;-73
2023/06/20 14:36:08;;;;;;;6.97;4.75;;;;;;;;;;5082624;28;20202;-73
2023/06/20 14:38:38;;;;;;;12.45;4.50;;;;;;;;;;5082558;28;20203;-73
2023/06/20 14:41:05;;;;;;;13.57;4.65;;;;;;;;;;5083057;28;20262;-73